createdAt,value
2017-08-22T00:00:15.574Z,98
2017-08-22T00:01:18.184Z,98
2017-08-22T00:02:21.073Z,98
2017-08-22T00:03:23.739Z,98
2017-08-22T00:04:26.254Z,98
2017-08-22T00:05:29.105Z,98
2017-08-22T00:06:31.975Z,98
2017-08-22T00:07:34.809Z,98
2017-08-22T00:08:38.672Z,98
2017-08-22T00:09:41.525Z,98
2017-08-22T00:10:44.312Z,98
2017-08-22T00:11:46.811Z,98
2017-08-22T00:12:49.715Z,98
2017-08-22T00:13:52.221Z,98
2017-08-22T00:14:54.733Z,98
2017-08-22T00:15:57.569Z,98
2017-08-22T00:17:00.559Z,98
2017-08-22T00:18:03.070Z,98
2017-08-22T00:19:05.929Z,98
2017-08-22T00:20:08.447Z,98
2017-08-22T00:21:10.964Z,98
2017-08-22T00:22:13.815Z,97
2017-08-22T00:23:17.015Z,97
2017-08-22T00:24:19.510Z,97
2017-08-22T00:25:22.032Z,97
2017-08-22T00:26:24.987Z,97
2017-08-22T00:27:27.501Z,97
2017-08-22T00:28:30.350Z,97
2017-08-22T00:29:33.215Z,97
2017-08-22T00:30:36.073Z,97
2017-08-22T00:31:39.003Z,97
2017-08-22T00:32:41.510Z,98
2017-08-22T00:33:44.372Z,97
2017-08-22T00:34:46.867Z,97
2017-08-22T00:35:49.578Z,97
2017-08-22T00:36:52.750Z,97
2017-08-22T00:37:55.261Z,97
2017-08-22T00:38:57.786Z,97
2017-08-22T00:40:00.296Z,98
2017-08-22T00:41:03.400Z,98
2017-08-22T00:42:05.920Z,98
2017-08-22T00:43:08.448Z,98
2017-08-22T00:44:11.632Z,98
2017-08-22T00:45:14.477Z,98
2017-08-22T00:46:17.998Z,98
2017-08-22T00:47:20.886Z,98
2017-08-22T00:48:23.769Z,98
2017-08-22T00:49:26.957Z,98
2017-08-22T00:50:30.137Z,98
2017-08-22T00:51:32.642Z,98
2017-08-22T00:52:35.509Z,98
2017-08-22T00:53:38.018Z,98
2017-08-22T00:54:40.543Z,98
2017-08-22T00:55:43.044Z,98
2017-08-22T00:56:45.582Z,98
2017-08-22T00:57:48.138Z,98
2017-08-22T00:58:50.639Z,98
2017-08-22T00:59:53.502Z,98
2017-08-22T01:00:56.344Z,98
2017-08-22T01:01:59.051Z,98
2017-08-22T01:03:01.553Z,98
2017-08-22T01:04:04.063Z,98
2017-08-22T01:05:06.925Z,98
2017-08-22T01:06:09.435Z,98
2017-08-22T01:07:11.939Z,98
2017-08-22T01:08:14.793Z,98
2017-08-22T01:09:17.644Z,98
2017-08-22T01:10:20.434Z,98
2017-08-22T01:11:23.214Z,98
2017-08-22T01:12:25.713Z,98
2017-08-22T01:13:28.865Z,98
2017-08-22T01:14:31.371Z,98
2017-08-22T01:15:34.581Z,98
2017-08-22T01:16:37.430Z,98
2017-08-22T01:17:39.942Z,98
2017-08-22T01:18:42.455Z,98
2017-08-22T01:19:45.653Z,98
2017-08-22T01:20:48.508Z,98
2017-08-22T01:21:51.325Z,98
2017-08-22T01:22:53.861Z,98
2017-08-22T01:23:56.374Z,98
2017-08-22T01:25:00.012Z,98
2017-08-22T01:26:02.849Z,98
2017-08-22T01:27:05.390Z,98
2017-08-22T01:28:07.900Z,98
2017-08-22T01:29:10.421Z,98
2017-08-22T01:30:12.937Z,98
2017-08-22T01:31:16.140Z,99
2017-08-22T01:32:18.656Z,99
2017-08-22T01:33:21.514Z,99
2017-08-22T01:34:24.012Z,99
2017-08-22T01:35:26.518Z,99
2017-08-22T01:36:29.048Z,99
2017-08-22T01:37:31.539Z,99
2017-08-22T01:38:34.070Z,99
2017-08-22T01:39:36.587Z,99
2017-08-22T01:40:39.437Z,99
2017-08-22T01:41:42.639Z,99
2017-08-22T01:42:45.140Z,99
2017-08-22T01:43:47.645Z,98
2017-08-22T01:44:50.854Z,99
2017-08-22T01:45:54.025Z,99
2017-08-22T01:46:56.533Z,99
2017-08-22T01:47:59.720Z,99
2017-08-22T01:49:02.959Z,99
2017-08-22T01:50:06.213Z,99
2017-08-22T01:51:09.064Z,99
2017-08-22T01:52:11.574Z,99
2017-08-22T01:53:14.097Z,99
2017-08-22T01:54:16.958Z,99
2017-08-22T01:55:19.470Z,99
2017-08-22T01:56:22.304Z,99
2017-08-22T01:57:25.494Z,99
2017-08-22T01:58:28.325Z,99
2017-08-22T01:59:31.522Z,99
2017-08-22T02:00:34.694Z,99
2017-08-22T02:01:37.876Z,99
2017-08-22T02:02:40.404Z,99
2017-08-22T02:03:43.246Z,99
2017-08-22T02:04:45.749Z,99
2017-08-22T02:05:48.599Z,99
2017-08-22T02:06:51.101Z,99
2017-08-22T02:07:53.640Z,99
2017-08-22T02:08:56.146Z,99
2017-08-22T02:09:58.986Z,99
2017-08-22T02:11:01.838Z,99
2017-08-22T02:12:04.358Z,99
2017-08-22T02:13:06.905Z,99
2017-08-22T02:14:09.751Z,99
2017-08-22T02:15:12.594Z,99
2017-08-22T02:16:16.132Z,99
2017-08-22T02:17:19.331Z,99
2017-08-22T02:18:22.867Z,99
2017-08-22T02:19:25.705Z,99
2017-08-22T02:20:28.207Z,99
2017-08-22T02:21:31.049Z,99
2017-08-22T02:22:33.551Z,99
2017-08-22T02:23:36.054Z,99
2017-08-22T02:24:38.936Z,99
2017-08-22T02:25:41.441Z,99
2017-08-22T02:26:44.984Z,99
2017-08-22T02:27:47.509Z,99
2017-08-22T02:28:50.351Z,99
2017-08-22T02:29:52.871Z,99
2017-08-22T02:30:55.372Z,99
2017-08-22T02:31:57.891Z,99
2017-08-22T02:33:01.444Z,99
2017-08-22T02:34:04.654Z,99
2017-08-22T02:35:07.865Z,99
2017-08-22T02:36:11.054Z,99
2017-08-22T02:37:13.918Z,99
2017-08-22T02:38:16.420Z,99
2017-08-22T02:39:18.931Z,99
2017-08-22T02:40:21.436Z,99
2017-08-22T02:41:24.301Z,99
2017-08-22T02:42:26.821Z,99
2017-08-22T02:43:30.384Z,99
2017-08-22T02:44:33.227Z,99
2017-08-22T02:45:35.752Z,99
2017-08-22T02:46:38.608Z,99
2017-08-22T02:47:41.120Z,99
2017-08-22T02:48:43.638Z,99
2017-08-22T02:49:46.501Z,99
2017-08-22T02:50:49.707Z,99
2017-08-22T02:51:52.910Z,99
2017-08-22T02:52:55.756Z,99
2017-08-22T02:53:58.597Z,99
2017-08-22T02:55:01.805Z,99
2017-08-22T02:56:04.663Z,99
2017-08-22T02:57:07.173Z,99
2017-08-22T02:58:10.037Z,99
2017-08-22T02:59:13.229Z,99
2017-08-22T03:00:15.735Z,99
2017-08-22T03:01:18.938Z,99
2017-08-22T03:02:21.771Z,99
2017-08-22T03:03:24.615Z,99
2017-08-22T03:04:27.494Z,99
2017-08-22T03:05:30.004Z,99
2017-08-22T03:06:32.501Z,99
2017-08-22T03:07:35.021Z,99
2017-08-22T03:08:37.514Z,99
2017-08-22T03:09:40.713Z,99
2017-08-22T03:10:43.906Z,99
2017-08-22T03:11:46.420Z,99
2017-08-22T03:12:49.271Z,99
2017-08-22T03:13:51.773Z,99
2017-08-22T03:14:54.271Z,99
2017-08-22T03:15:57.121Z,99
2017-08-22T03:16:59.994Z,99
2017-08-22T03:18:02.520Z,99
2017-08-22T03:19:05.350Z,99
2017-08-22T03:20:07.871Z,99
2017-08-22T03:21:10.379Z,99
2017-08-22T03:22:12.889Z,99
2017-08-22T03:23:15.399Z,99
2017-08-22T03:24:17.925Z,99
2017-08-22T03:25:20.783Z,99
2017-08-22T03:26:23.643Z,99
2017-08-22T03:27:26.494Z,100
2017-08-22T03:28:29.340Z,99
2017-08-22T03:29:32.889Z,99
2017-08-22T03:30:36.093Z,99
2017-08-22T03:31:39.638Z,99
2017-08-22T03:32:42.481Z,99
2017-08-22T03:33:45.357Z,99
2017-08-22T03:34:48.197Z,100
2017-08-22T03:35:51.035Z,100
2017-08-22T03:36:53.885Z,100
2017-08-22T03:37:56.374Z,100
2017-08-22T03:38:59.211Z,100
2017-08-22T03:40:01.732Z,100
2017-08-22T03:41:05.252Z,100
2017-08-22T03:42:08.432Z,100
2017-08-22T03:43:11.631Z,100
2017-08-22T03:44:14.805Z,100
2017-08-22T03:45:17.978Z,100
2017-08-22T03:46:20.502Z,100
2017-08-22T03:47:24.034Z,100
2017-08-22T03:48:26.548Z,100
2017-08-22T03:49:29.070Z,100
2017-08-22T03:50:31.565Z,100
2017-08-22T03:51:34.425Z,100
2017-08-22T03:52:37.269Z,100
2017-08-22T03:53:40.445Z,100
2017-08-22T03:54:43.293Z,100
2017-08-22T03:55:46.135Z,100
2017-08-22T03:56:48.635Z,100
2017-08-22T03:57:51.144Z,100
2017-08-22T03:58:53.642Z,100
2017-08-22T03:59:56.835Z,100
2017-08-22T04:00:59.686Z,100
2017-08-22T04:02:02.892Z,100
2017-08-22T04:03:06.085Z,100
2017-08-22T04:04:09.265Z,100
2017-08-22T04:05:12.800Z,100
2017-08-22T04:06:15.307Z,100
2017-08-22T04:07:18.151Z,100
2017-08-22T04:08:20.652Z,100
2017-08-22T04:09:23.517Z,100
2017-08-22T04:10:26.372Z,100
2017-08-22T04:11:28.877Z,100
2017-08-22T04:12:32.411Z,100
2017-08-22T04:13:34.912Z,99
2017-08-22T04:14:37.785Z,99
2017-08-22T04:15:40.977Z,99
2017-08-22T04:16:43.461Z,99
2017-08-22T04:17:45.978Z,99
2017-08-22T04:18:48.852Z,99
2017-08-22T04:19:51.702Z,99
2017-08-22T04:20:54.559Z,99
2017-08-22T04:21:57.057Z,99
2017-08-22T04:22:59.906Z,99
2017-08-22T04:24:02.769Z,99
2017-08-22T04:25:05.262Z,99
2017-08-22T04:26:08.098Z,99
2017-08-22T04:27:10.607Z,100
2017-08-22T04:28:13.153Z,99
2017-08-22T04:29:15.664Z,99
2017-08-22T04:30:18.504Z,99
2017-08-22T04:31:21.691Z,99
2017-08-22T04:32:24.581Z,99
2017-08-22T04:33:27.777Z,100
2017-08-22T04:34:30.971Z,100
2017-08-22T04:35:33.819Z,99
2017-08-22T04:36:36.653Z,99
2017-08-22T04:37:39.158Z,99
2017-08-22T04:38:41.674Z,99
2017-08-22T04:39:44.190Z,99
2017-08-22T04:40:46.684Z,99
2017-08-22T04:41:49.197Z,99
2017-08-22T04:42:51.689Z,99
2017-08-22T04:43:54.552Z,99
2017-08-22T04:44:57.422Z,99
2017-08-22T04:45:59.935Z,99
2017-08-22T04:47:03.494Z,100
2017-08-22T04:48:06.338Z,100
2017-08-22T04:49:09.163Z,100
2017-08-22T04:50:12.360Z,100
2017-08-22T04:51:15.529Z,100
2017-08-22T04:52:18.404Z,100
2017-08-22T04:53:20.907Z,100
2017-08-22T04:54:23.418Z,100
2017-08-22T04:55:25.919Z,100
2017-08-22T04:56:28.464Z,100
2017-08-22T04:57:31.651Z,100
2017-08-22T04:58:34.157Z,100
2017-08-22T04:59:37.012Z,100
2017-08-22T05:00:39.508Z,100
2017-08-22T05:01:42.692Z,100
2017-08-22T05:02:46.207Z,99
2017-08-22T05:03:48.715Z,99
2017-08-22T05:04:51.235Z,99
2017-08-22T05:05:54.428Z,99
2017-08-22T05:06:56.918Z,99
2017-08-22T05:07:59.425Z,99
2017-08-22T05:09:02.287Z,99
2017-08-22T05:10:04.792Z,99
2017-08-22T05:11:07.300Z,99
2017-08-22T05:12:09.804Z,99
2017-08-22T05:13:13.317Z,99
2017-08-22T05:14:15.848Z,99
2017-08-22T05:15:18.344Z,99
2017-08-22T05:16:21.192Z,99
2017-08-22T05:17:24.034Z,99
2017-08-22T05:18:26.537Z,99
2017-08-22T05:19:29.727Z,99
2017-08-22T05:20:32.590Z,99
2017-08-22T05:21:35.075Z,99
2017-08-22T05:22:38.249Z,99
2017-08-22T05:23:41.098Z,99
2017-08-22T05:24:43.621Z,99
2017-08-22T05:25:46.451Z,99
2017-08-22T05:26:48.962Z,99
2017-08-22T05:27:51.474Z,99
2017-08-22T05:28:53.972Z,99
2017-08-22T05:29:56.822Z,99
2017-08-22T05:31:00.047Z,98
2017-08-22T05:32:02.547Z,98
2017-08-22T05:33:05.389Z,98
2017-08-22T05:34:07.895Z,98
2017-08-22T05:35:11.104Z,98
2017-08-22T05:36:13.983Z,98
2017-08-22T05:37:16.836Z,98
2017-08-22T05:38:19.686Z,98
2017-08-22T05:39:22.192Z,98
2017-08-22T05:40:25.055Z,98
2017-08-22T05:41:27.572Z,98
2017-08-22T05:42:30.069Z,98
2017-08-22T05:43:32.925Z,98
2017-08-22T05:44:36.534Z,98
2017-08-22T05:45:39.721Z,98
2017-08-22T05:46:42.233Z,98
2017-08-22T05:47:44.725Z,98
2017-08-22T05:48:47.586Z,98
2017-08-22T05:49:50.784Z,98
2017-08-22T05:50:53.980Z,98
2017-08-22T05:51:56.849Z,98
2017-08-22T05:52:59.689Z,98
2017-08-22T05:54:02.560Z,98
2017-08-22T05:55:05.090Z,98
2017-08-22T05:56:08.354Z,98
2017-08-22T05:57:10.850Z,97
2017-08-22T05:58:13.713Z,97
2017-08-22T05:59:16.208Z,97
2017-08-22T06:00:19.404Z,97
2017-08-22T06:01:22.584Z,97
2017-08-22T06:02:25.440Z,97
2017-08-22T06:03:27.949Z,97
2017-08-22T06:04:30.482Z,97
2017-08-22T06:05:32.976Z,97
2017-08-22T06:06:35.511Z,97
2017-08-22T06:07:38.022Z,97
2017-08-22T06:08:41.194Z,97
2017-08-22T06:09:43.705Z,97
2017-08-22T06:10:46.544Z,97
2017-08-22T06:11:49.746Z,96
2017-08-22T06:12:52.288Z,96
2017-08-22T06:13:55.126Z,97
2017-08-22T06:14:57.646Z,97
2017-08-22T06:16:00.828Z,96
2017-08-22T06:17:03.674Z,96
2017-08-22T06:18:06.181Z,96
2017-08-22T06:19:08.707Z,96
2017-08-22T06:20:11.551Z,96
2017-08-22T06:21:14.092Z,96
2017-08-22T06:22:17.291Z,96
2017-08-22T06:23:20.827Z,96
2017-08-22T06:24:23.334Z,96
2017-08-22T06:25:25.837Z,96
2017-08-22T06:26:28.898Z,96
2017-08-22T06:27:31.763Z,96
2017-08-22T06:28:34.599Z,96
2017-08-22T06:29:37.130Z,95
2017-08-22T06:30:39.964Z,95
2017-08-22T06:31:42.806Z,95
2017-08-22T06:32:46.017Z,95
2017-08-22T06:33:48.566Z,94
2017-08-22T06:34:51.766Z,95
2017-08-22T06:35:54.607Z,95
2017-08-22T06:36:57.136Z,94
2017-08-22T06:37:59.648Z,94
2017-08-22T06:39:02.154Z,94
2017-08-22T06:40:04.655Z,94
2017-08-22T06:41:07.840Z,94
2017-08-22T06:42:55.146Z,94
2017-08-22T06:43:57.569Z,94
2017-08-22T06:44:59.991Z,94
2017-08-22T06:46:03.410Z,94
2017-08-22T06:47:05.828Z,94
2017-08-22T06:48:08.252Z,93
2017-08-22T06:49:11.339Z,94
2017-08-22T06:50:13.768Z,94
2017-08-22T06:51:16.514Z,94
2017-08-22T06:52:18.927Z,94
2017-08-22T06:53:21.357Z,94
2017-08-22T06:54:23.762Z,93
2017-08-22T06:55:26.515Z,92
2017-08-22T06:56:29.983Z,92
2017-08-22T06:57:33.081Z,92
2017-08-22T06:58:35.487Z,92
2017-08-22T06:59:37.909Z,92
2017-08-22T07:00:40.324Z,92
2017-08-22T07:01:42.735Z,92
2017-08-22T07:02:45.155Z,91
2017-08-22T07:03:47.605Z,91
2017-08-22T07:04:50.029Z,90
2017-08-22T07:05:52.779Z,90
2017-08-22T07:06:55.203Z,89
2017-08-22T07:07:57.623Z,89
2017-08-22T07:09:00.080Z,89
2017-08-22T07:10:03.202Z,88
2017-08-22T07:11:05.985Z,89
2017-08-22T07:12:08.398Z,89
2017-08-22T07:13:11.513Z,90
2017-08-22T07:14:14.275Z,88
2017-08-22T07:15:16.723Z,88
2017-08-22T07:16:19.137Z,86
2017-08-22T07:17:21.623Z,87
2017-08-22T07:18:24.722Z,87
2017-08-22T07:19:27.162Z,86
2017-08-22T07:20:29.582Z,85
2017-08-22T07:21:32.338Z,85
2017-08-22T07:22:34.790Z,84
2017-08-22T07:23:37.230Z,85
2017-08-22T07:24:39.653Z,86
2017-08-22T07:25:42.116Z,87
2017-08-22T07:26:44.537Z,86
2017-08-22T07:27:47.643Z,87
2017-08-22T07:28:50.420Z,85
2017-08-22T07:29:52.846Z,84
2017-08-22T07:30:55.626Z,85
2017-08-22T07:31:58.045Z,85
2017-08-22T07:33:00.471Z,86
2017-08-22T07:34:03.256Z,86
2017-08-22T07:35:06.024Z,86
2017-08-22T07:36:08.461Z,86
2017-08-22T07:37:11.232Z,86
2017-08-22T07:38:13.672Z,86
2017-08-22T07:39:16.121Z,86
2017-08-22T07:40:19.227Z,86
2017-08-22T07:41:22.319Z,85
2017-08-22T07:42:24.772Z,85
2017-08-22T07:43:27.209Z,84
2017-08-22T07:44:29.630Z,84
2017-08-22T07:45:33.058Z,83
2017-08-22T07:46:35.492Z,85
2017-08-22T07:47:37.924Z,83
2017-08-22T07:48:40.351Z,83
2017-08-22T07:49:43.112Z,83
2017-08-22T07:50:45.555Z,83
2017-08-22T07:51:47.973Z,83
2017-08-22T07:52:50.760Z,83
2017-08-22T07:53:53.213Z,84
2017-08-22T07:54:55.988Z,84
2017-08-22T07:55:58.420Z,84
2017-08-22T07:57:01.180Z,85
2017-08-22T07:58:03.944Z,85
2017-08-22T07:59:06.704Z,85
2017-08-22T08:00:09.815Z,86
2017-08-22T08:01:12.615Z,86
2017-08-22T08:02:15.042Z,86
2017-08-22T08:03:17.826Z,85
2017-08-22T08:04:20.257Z,84
2017-08-22T08:05:22.724Z,83
2017-08-22T08:06:25.164Z,84
2017-08-22T08:07:27.927Z,82
2017-08-22T08:08:31.026Z,84
2017-08-22T08:09:33.820Z,83
2017-08-22T08:10:36.273Z,83
2017-08-22T08:11:38.683Z,85
2017-08-22T08:12:41.485Z,85
2017-08-22T08:13:44.275Z,85
2017-08-22T08:14:47.042Z,83
2017-08-22T08:15:49.810Z,83
2017-08-22T08:16:52.241Z,82
2017-08-22T08:17:54.654Z,83
2017-08-22T08:18:57.088Z,81
2017-08-22T08:19:59.563Z,83
2017-08-22T08:21:02.047Z,82
2017-08-22T08:22:04.823Z,81
2017-08-22T08:23:08.285Z,80
2017-08-22T08:24:10.757Z,80
2017-08-22T08:25:13.174Z,79
2017-08-22T08:26:15.592Z,80
2017-08-22T08:27:18.386Z,78
2017-08-22T08:28:20.849Z,78
2017-08-22T08:29:23.271Z,79
2017-08-22T08:30:25.689Z,78
2017-08-22T08:31:28.110Z,75
2017-08-22T08:32:30.885Z,76
2017-08-22T08:33:33.656Z,76
2017-08-22T08:34:36.095Z,74
2017-08-22T08:35:38.519Z,74
2017-08-22T08:36:40.944Z,74
2017-08-22T08:37:43.389Z,75
2017-08-22T08:38:46.540Z,74
2017-08-22T08:39:49.033Z,76
2017-08-22T08:40:51.835Z,72
2017-08-22T08:41:54.248Z,73
2017-08-22T08:42:56.726Z,71
2017-08-22T08:44:00.573Z,72
2017-08-22T08:45:03.410Z,72
2017-08-22T08:46:05.903Z,72
2017-08-22T08:47:09.043Z,68
2017-08-22T08:48:12.139Z,66
2017-08-22T08:49:15.247Z,69
2017-08-22T08:50:17.713Z,71
2017-08-22T08:51:20.142Z,72
2017-08-22T08:52:22.575Z,68
2017-08-22T08:53:25.003Z,66
2017-08-22T08:54:27.761Z,70
2017-08-22T08:55:30.571Z,64
2017-08-22T08:56:33.030Z,64
2017-08-22T08:57:35.502Z,65
2017-08-22T08:58:37.928Z,66
2017-08-22T08:59:40.360Z,69
2017-08-22T09:00:43.141Z,66
2017-08-22T09:01:45.554Z,65
2017-08-22T09:02:48.374Z,63
2017-08-22T09:03:50.799Z,62
2017-08-22T09:04:53.559Z,64
2017-08-22T09:05:56.999Z,63
2017-08-22T09:06:59.426Z,60
2017-08-22T09:08:02.192Z,60
2017-08-22T09:09:05.678Z,63
2017-08-22T09:10:08.208Z,63
2017-08-22T09:11:10.632Z,63
2017-08-22T09:12:13.405Z,63
2017-08-22T09:13:16.503Z,61
2017-08-22T09:14:19.007Z,59
2017-08-22T09:15:21.795Z,62
2017-08-22T09:16:24.577Z,64
2017-08-22T09:17:27.340Z,66
2017-08-22T09:18:29.783Z,64
2017-08-22T09:19:32.884Z,62
2017-08-22T09:20:35.330Z,65
2017-08-22T09:21:38.104Z,63
2017-08-22T09:22:40.868Z,64
2017-08-22T09:23:43.302Z,64
2017-08-22T09:24:45.733Z,64
2017-08-22T09:25:48.148Z,63
2017-08-22T09:26:50.577Z,62
2017-08-22T09:27:53.003Z,61
2017-08-22T09:28:55.433Z,62
2017-08-22T09:29:58.200Z,63
2017-08-22T09:31:00.630Z,62
2017-08-22T09:32:03.427Z,60
2017-08-22T09:33:06.590Z,63
2017-08-22T09:34:09.028Z,59
2017-08-22T09:35:11.445Z,60
2017-08-22T09:36:14.239Z,62
2017-08-22T09:37:16.691Z,65
2017-08-22T09:38:19.484Z,58
2017-08-22T09:39:21.961Z,63
2017-08-22T09:40:24.508Z,60
2017-08-22T09:41:27.438Z,61
2017-08-22T09:42:29.955Z,64
2017-08-22T09:43:32.816Z,61
2017-08-22T09:44:35.567Z,60
2017-08-22T09:45:38.330Z,60
2017-08-22T09:46:40.780Z,59
2017-08-22T09:47:43.549Z,61
2017-08-22T09:48:46.320Z,59
2017-08-22T09:49:49.086Z,60
2017-08-22T09:50:51.518Z,59
2017-08-22T09:51:53.951Z,59
2017-08-22T09:52:56.725Z,61
2017-08-22T09:53:59.499Z,63
2017-08-22T09:55:02.310Z,64
2017-08-22T09:56:05.081Z,66
2017-08-22T09:57:07.515Z,60
2017-08-22T09:58:09.972Z,59
2017-08-22T09:59:12.404Z,56
2017-08-22T10:00:15.521Z,56
2017-08-22T10:01:18.693Z,56
2017-08-22T10:02:21.469Z,57
2017-08-22T10:03:23.894Z,59
2017-08-22T10:04:26.672Z,62
2017-08-22T10:05:29.454Z,60
2017-08-22T10:06:31.879Z,62
2017-08-22T10:07:34.990Z,62
2017-08-22T10:08:37.747Z,63
2017-08-22T10:09:40.188Z,58
2017-08-22T10:10:42.637Z,61
2017-08-22T10:11:45.401Z,62
2017-08-22T10:12:47.833Z,59
2017-08-22T10:13:50.264Z,56
2017-08-22T10:14:53.376Z,61
2017-08-22T10:15:55.812Z,59
2017-08-22T10:16:58.242Z,60
2017-08-22T10:18:00.989Z,62
2017-08-22T10:19:04.113Z,60
2017-08-22T10:20:07.347Z,59
2017-08-22T10:21:10.452Z,62
2017-08-22T10:22:13.225Z,57
2017-08-22T10:23:15.648Z,60
2017-08-22T10:24:18.756Z,62
2017-08-22T10:25:21.544Z,60
2017-08-22T10:26:24.305Z,56
2017-08-22T10:27:26.754Z,54
2017-08-22T10:28:29.522Z,55
2017-08-22T10:29:31.953Z,53
2017-08-22T10:30:34.718Z,51
2017-08-22T10:31:37.150Z,54
2017-08-22T10:32:39.943Z,55
2017-08-22T10:33:43.044Z,55
2017-08-22T10:34:45.825Z,54
2017-08-22T10:35:48.927Z,57
2017-08-22T10:36:51.358Z,61
2017-08-22T10:37:53.788Z,55
2017-08-22T10:38:56.234Z,60
2017-08-22T10:39:58.995Z,59
2017-08-22T10:41:01.436Z,61
2017-08-22T10:42:04.887Z,61
2017-08-22T10:43:07.306Z,61
2017-08-22T10:44:09.749Z,60
2017-08-22T10:45:12.532Z,61
2017-08-22T10:46:15.287Z,57
2017-08-22T10:47:17.730Z,59
2017-08-22T10:48:20.497Z,58
2017-08-22T10:49:22.945Z,56
2017-08-22T10:50:26.408Z,60
2017-08-22T10:51:29.170Z,58
2017-08-22T10:52:31.616Z,57
2017-08-22T10:53:34.390Z,55
2017-08-22T10:54:37.515Z,58
2017-08-22T10:55:39.932Z,61
2017-08-22T10:56:42.740Z,55
2017-08-22T10:57:45.170Z,56
2017-08-22T10:58:47.600Z,54
2017-08-22T10:59:51.059Z,55
2017-08-22T11:00:54.166Z,59
2017-08-22T11:01:57.277Z,55
2017-08-22T11:03:00.435Z,56
2017-08-22T11:04:03.203Z,56
2017-08-22T11:05:06.328Z,56
2017-08-22T11:06:08.805Z,58
2017-08-22T11:07:11.252Z,53
2017-08-22T11:08:13.687Z,56
2017-08-22T11:09:16.119Z,57
2017-08-22T11:10:18.898Z,53
2017-08-22T11:11:21.686Z,53
2017-08-22T11:12:24.117Z,57
2017-08-22T11:13:26.565Z,54
2017-08-22T11:14:28.999Z,54
2017-08-22T11:15:31.779Z,57
2017-08-22T11:16:34.209Z,55
2017-08-22T11:17:36.985Z,55
2017-08-22T11:18:39.752Z,51
2017-08-22T11:19:42.185Z,51
2017-08-22T11:20:45.309Z,51
2017-08-22T11:21:48.106Z,50
2017-08-22T11:22:50.881Z,54
2017-08-22T11:23:53.317Z,53
2017-08-22T11:24:55.748Z,52
2017-08-22T11:25:58.180Z,55
2017-08-22T11:27:00.623Z,55
2017-08-22T11:28:03.055Z,55
2017-08-22T11:29:05.825Z,57
2017-08-22T11:30:08.938Z,55
2017-08-22T11:31:11.697Z,55
2017-08-22T11:32:14.816Z,58
2017-08-22T11:33:17.244Z,58
2017-08-22T11:34:20.041Z,61
2017-08-22T11:35:23.144Z,59
2017-08-22T11:36:26.591Z,57
2017-08-22T11:37:29.511Z,60
2017-08-22T11:38:32.975Z,62
2017-08-22T11:39:35.397Z,63
2017-08-22T11:40:37.824Z,62
2017-08-22T11:41:40.277Z,64
2017-08-22T11:42:42.707Z,56
2017-08-22T11:43:45.138Z,58
2017-08-22T11:44:47.906Z,59
2017-08-22T11:45:50.341Z,59
2017-08-22T11:46:53.452Z,56
2017-08-22T11:47:56.221Z,58
2017-08-22T11:48:59.013Z,57
2017-08-22T11:50:01.782Z,56
2017-08-22T11:51:04.531Z,60
2017-08-22T11:52:07.648Z,62
2017-08-22T11:53:10.087Z,57
2017-08-22T11:54:12.522Z,58
2017-08-22T11:55:14.945Z,60
2017-08-22T11:56:17.377Z,56
2017-08-22T11:57:20.214Z,53
2017-08-22T11:58:22.645Z,57
2017-08-22T11:59:26.195Z,53
2017-08-22T12:00:29.105Z,56
2017-08-22T12:01:31.888Z,52
2017-08-22T12:02:35.340Z,56
2017-08-22T12:03:37.752Z,51
2017-08-22T12:04:40.189Z,56
2017-08-22T12:05:43.634Z,51
2017-08-22T12:06:46.455Z,53
2017-08-22T12:07:48.896Z,54
2017-08-22T12:08:51.667Z,55
2017-08-22T12:09:54.102Z,57
2017-08-22T12:10:56.536Z,57
2017-08-22T12:11:59.313Z,58
2017-08-22T12:13:02.427Z,54
2017-08-22T12:14:05.211Z,59
2017-08-22T12:15:07.657Z,60
2017-08-22T12:16:10.083Z,59
2017-08-22T12:17:12.841Z,59
2017-08-22T12:18:15.280Z,58
2017-08-22T12:19:18.042Z,60
2017-08-22T12:20:20.491Z,62
2017-08-22T12:21:23.608Z,61
2017-08-22T12:22:26.709Z,59
2017-08-22T12:23:29.140Z,62
2017-08-22T12:24:31.587Z,60
2017-08-22T12:25:34.010Z,62
2017-08-22T12:26:37.244Z,62
2017-08-22T12:27:40.043Z,62
2017-08-22T12:28:42.507Z,62
2017-08-22T12:29:45.267Z,59
2017-08-22T12:30:48.042Z,62
2017-08-22T12:31:50.509Z,63
2017-08-22T12:32:53.079Z,63
2017-08-22T12:33:55.849Z,62
2017-08-22T12:34:58.616Z,62
2017-08-22T12:36:01.721Z,62
2017-08-22T12:37:04.165Z,63
2017-08-22T12:38:06.585Z,59
2017-08-22T12:39:09.616Z,60
2017-08-22T12:40:12.370Z,59
2017-08-22T12:41:15.126Z,60
2017-08-22T12:42:18.221Z,61
2017-08-22T12:43:21.004Z,58
2017-08-22T12:44:23.792Z,59
2017-08-22T12:45:26.257Z,59
2017-08-22T12:46:29.058Z,59
2017-08-22T12:47:31.818Z,58
2017-08-22T12:48:34.243Z,62
2017-08-22T12:49:37.349Z,62
2017-08-22T12:50:40.117Z,64
2017-08-22T12:51:42.875Z,61
2017-08-22T12:52:45.631Z,57
2017-08-22T12:53:48.634Z,58
2017-08-22T12:54:51.389Z,58
2017-08-22T12:55:54.167Z,51
2017-08-22T12:56:56.933Z,53
2017-08-22T12:57:59.355Z,52
2017-08-22T12:59:02.462Z,56
2017-08-22T13:00:05.586Z,53
2017-08-22T13:01:08.028Z,54
2017-08-22T13:02:10.465Z,51
2017-08-22T13:03:13.232Z,54
2017-08-22T13:04:15.787Z,56
2017-08-22T13:05:18.322Z,55
2017-08-22T13:06:21.085Z,53
2017-08-22T13:07:23.510Z,56
2017-08-22T13:08:26.613Z,56
2017-08-22T13:09:29.712Z,55
2017-08-22T13:10:32.689Z,55
2017-08-22T13:11:36.463Z,56
2017-08-22T13:12:39.229Z,58
2017-08-22T13:13:41.996Z,56
2017-08-22T13:14:44.444Z,57
2017-08-22T13:15:46.868Z,59
2017-08-22T13:16:50.309Z,60
2017-08-22T13:17:53.420Z,54
2017-08-22T13:18:56.551Z,57
2017-08-22T13:19:59.329Z,54
2017-08-22T13:21:01.799Z,61
2017-08-22T13:22:04.569Z,57
2017-08-22T13:23:06.997Z,55
2017-08-22T13:24:10.111Z,56
2017-08-22T13:25:13.230Z,56
2017-08-22T13:26:16.345Z,56
2017-08-22T13:27:19.448Z,57
2017-08-22T13:28:21.871Z,58
2017-08-22T13:29:24.970Z,58
2017-08-22T13:30:28.097Z,58
2017-08-22T13:31:31.199Z,55
2017-08-22T13:32:34.322Z,59
2017-08-22T13:33:36.751Z,58
2017-08-22T13:34:39.508Z,54
2017-08-22T13:35:41.963Z,55
2017-08-22T13:36:44.731Z,55
2017-08-22T13:37:47.497Z,57
2017-08-22T13:38:49.924Z,59
2017-08-22T13:39:52.350Z,60
2017-08-22T13:40:54.776Z,58
2017-08-22T13:41:57.201Z,58
2017-08-22T13:42:59.657Z,60
2017-08-22T13:44:02.778Z,60
2017-08-22T13:45:05.875Z,59
2017-08-22T13:46:09.057Z,58
2017-08-22T13:47:11.816Z,62
2017-08-22T13:48:14.947Z,59
2017-08-22T13:49:17.374Z,62
2017-08-22T13:50:20.495Z,60
2017-08-22T13:51:22.932Z,58
2017-08-22T13:52:25.370Z,57
2017-08-22T13:53:27.789Z,57
2017-08-22T13:54:30.570Z,59
2017-08-22T13:55:33.020Z,61
2017-08-22T13:56:35.799Z,61
2017-08-22T13:57:38.553Z,60
2017-08-22T13:58:40.986Z,61
2017-08-22T13:59:43.416Z,60
2017-08-22T14:00:46.544Z,56
2017-08-22T14:01:49.308Z,57
2017-08-22T14:02:52.085Z,59
2017-08-22T14:03:54.506Z,60
2017-08-22T14:04:56.962Z,61
2017-08-22T14:05:59.730Z,61
2017-08-22T14:07:03.193Z,64
2017-08-22T14:08:05.614Z,63
2017-08-22T14:09:08.726Z,63
2017-08-22T14:10:11.492Z,61
2017-08-22T14:11:14.263Z,56
2017-08-22T14:12:16.718Z,59
2017-08-22T14:13:19.505Z,57
2017-08-22T14:14:21.929Z,56
2017-08-22T14:15:24.350Z,50
2017-08-22T14:16:27.110Z,53
2017-08-22T14:17:29.541Z,50
2017-08-22T14:18:31.982Z,50
2017-08-22T14:19:34.736Z,53
2017-08-22T14:20:37.515Z,54
2017-08-22T14:21:39.956Z,55
2017-08-22T14:22:42.387Z,48
2017-08-22T14:23:45.511Z,49
2017-08-22T14:24:48.286Z,53
2017-08-22T14:25:50.733Z,45
2017-08-22T14:26:53.160Z,50
2017-08-22T14:27:55.581Z,49
2017-08-22T14:28:58.354Z,51
2017-08-22T14:30:01.152Z,49
2017-08-22T14:31:03.591Z,51
2017-08-22T14:32:06.034Z,49
2017-08-22T14:33:09.137Z,47
2017-08-22T14:34:11.566Z,50
2017-08-22T14:35:14.011Z,51
2017-08-22T14:36:16.769Z,51
2017-08-22T14:37:19.233Z,52
2017-08-22T14:38:21.676Z,52
2017-08-22T14:39:24.439Z,52
2017-08-22T14:40:26.884Z,55
2017-08-22T14:41:29.659Z,52
2017-08-22T14:42:32.442Z,53
2017-08-22T14:43:35.559Z,52
2017-08-22T14:44:37.989Z,51
2017-08-22T14:45:40.793Z,53
2017-08-22T14:46:43.233Z,54
2017-08-22T14:47:45.658Z,52
2017-08-22T14:48:48.763Z,50
2017-08-22T14:49:51.201Z,53
2017-08-22T14:50:53.967Z,58
2017-08-22T14:51:57.066Z,55
2017-08-22T14:52:59.516Z,56